TimePST,TemperatureF,Dew PointF,Humidity,Sea Level PressureIn,VisibilityMPH,Wind Direction,Wind SpeedMPH,Gust SpeedMPH,PrecipitationIn,Events,Conditions,WindDirDegrees,DateUTC
12:52 AM,48.0,35.1,61,30.12,7.0,WSW,16.1,-,N/A,,Clear,240,2014-01-13 08:52:00
1:08 AM,48.2,35.6,62,30.11,4.0,SW,13.8,23.0,N/A,,Haze,230,2014-01-13 09:08:00
1:18 AM,48.2,35.6,62,30.11,4.0,SW,9.2,19.6,N/A,,Haze,230,2014-01-13 09:18:00
1:31 AM,48.2,35.6,62,30.13,4.0,WSW,16.1,24.2,N/A,,Haze,240,2014-01-13 09:31:00
1:52 AM,50.0,35.1,57,30.14,2.5,WSW,26.5,35.7,N/A,,Haze,240,2014-01-13 09:52:00
2:04 AM,50.0,35.6,58,30.12,4.0,SW,20.7,39.1,N/A,,Haze,230,2014-01-13 10:04:00
2:26 AM,48.2,35.6,62,30.14,10.0,WSW,20.7,38.0,N/A,,Scattered Clouds,240,2014-01-13 10:26:00
2:52 AM,50.0,36.0,59,30.15,8.0,WSW,19.6,32.2,N/A,,Clear,240,2014-01-13 10:52:00
3:52 AM,48.9,36.0,61,30.16,10.0,SW,19.6,28.8,N/A,,Clear,220,2014-01-13 11:52:00
4:52 AM,48.9,36.0,61,30.15,10.0,SW,24.2,31.1,N/A,,Clear,230,2014-01-13 12:52:00
5:52 AM,48.0,35.1,61,30.14,10.0,SSW,19.6,31.1,N/A,,Clear,210,2014-01-13 13:52:00
6:52 AM,48.0,34.0,58,30.16,10.0,South,21.9,31.1,N/A,,Clear,190,2014-01-13 14:52:00
7:52 AM,48.9,33.1,54,30.17,10.0,South,25.3,39.1,N/A,,Scattered Clouds,190,2014-01-13 15:52:00
8:52 AM,48.9,33.1,54,30.23,4.0,SSW,10.4,23.0,N/A,,Haze,210,2014-01-13 16:52:00
8:59 AM,48.2,33.8,58,30.22,3.0,SSW,12.7,-,N/A,,Haze,210,2014-01-13 16:59:00
9:09 AM,48.2,33.8,58,30.22,5.0,WSW,17.3,24.2,N/A,,Haze,240,2014-01-13 17:09:00
9:52 AM,50.0,34.0,54,30.27,9.0,SW,12.7,-,N/A,,Clear,220,2014-01-13 17:52:00
10:52 AM,51.1,35.1,54,30.30,10.0,WSW,10.4,21.9,N/A,,Clear,240,2014-01-13 18:52:00
11:52 AM,53.1,35.1,50,30.30,10.0,WSW,13.8,-,N/A,,Clear,240,2014-01-13 19:52:00
12:52 PM,54.0,36.0,51,30.30,9.0,WSW,15.0,24.2,N/A,,Clear,250,2014-01-13 20:52:00
1:52 PM,54.0,36.0,51,30.30,9.0,WSW,17.3,-,N/A,,Clear,250,2014-01-13 21:52:00
2:52 PM,54.0,37.0,53,30.32,4.0,WSW,21.9,31.1,N/A,,Haze,240,2014-01-13 22:52:00
3:52 PM,52.0,36.0,54,30.33,9.0,WSW,19.6,26.5,N/A,,Clear,240,2014-01-13 23:52:00
4:52 PM,50.0,36.0,59,30.36,10.0,WSW,15.0,-,N/A,,Clear,240,2014-01-14 00:52:00
5:52 PM,48.0,36.0,63,30.35,10.0,SW,19.6,-,N/A,,Clear,230,2014-01-14 01:52:00
6:52 PM,54.0,32.0,43,30.38,10.0,West,13.8,26.5,N/A,,Clear,260,2014-01-14 02:52:00
7:52 PM,46.9,35.1,63,30.44,10.0,WSW,9.2,-,N/A,,Clear,240,2014-01-14 03:52:00
8:52 PM,46.9,35.1,63,30.45,10.0,SW,8.1,-,N/A,,Clear,220,2014-01-14 04:52:00
9:52 PM,46.0,36.0,68,30.49,10.0,SSW,9.2,-,N/A,,Clear,210,2014-01-14 05:52:00
10:52 PM,45.0,36.0,71,30.51,10.0,SW,9.2,-,N/A,,Clear,230,2014-01-14 06:52:00
11:52 PM,44.1,35.1,71,30.51,10.0,West,10.4,-,N/A,,Mostly Cloudy,260,2014-01-14 07:52:00